sensor_id;sensor_type;location;lat;lon;timestamp;P1;durP1;ratioP1;P2;durP2;ratioP2
20669;SDS011;10494;50.868;4.180;2022-12-07T00:03:31;27.83;;;14.60;;
20669;SDS011;10494;50.868;4.180;2022-12-07T00:05:58;23.70;;;13.40;;
20669;SDS011;10494;50.868;4.180;2022-12-07T00:08:24;28.17;;;14.40;;
20669;SDS011;10494;50.868;4.180;2022-12-07T00:10:50;25.50;;;14.30;;
20669;SDS011;10494;50.868;4.180;2022-12-07T00:13:15;24.07;;;14.17;;
20669;SDS011;10494;50.868;4.180;2022-12-07T00:15:41;26.60;;;14.37;;
20669;SDS011;10494;50.868;4.180;2022-12-07T00:18:06;22.00;;;13.17;;
20669;SDS011;10494;50.868;4.180;2022-12-07T00:20:32;26.63;;;14.33;;
20669;SDS011;10494;50.868;4.180;2022-12-07T00:22:58;20.90;;;13.23;;
20669;SDS011;10494;50.868;4.180;2022-12-07T00:25:24;23.20;;;13.00;;
20669;SDS011;10494;50.868;4.180;2022-12-07T00:27:49;28.23;;;14.07;;
20669;SDS011;10494;50.868;4.180;2022-12-07T00:30:15;22.67;;;13.83;;
20669;SDS011;10494;50.868;4.180;2022-12-07T00:32:41;23.10;;;14.70;;
20669;SDS011;10494;50.868;4.180;2022-12-07T00:35:06;33.07;;;15.80;;
20669;SDS011;10494;50.868;4.180;2022-12-07T00:37:32;26.83;;;15.07;;
20669;SDS011;10494;50.868;4.180;2022-12-07T00:39:58;25.37;;;15.03;;
20669;SDS011;10494;50.868;4.180;2022-12-07T00:42:23;21.73;;;13.10;;
20669;SDS011;10494;50.868;4.180;2022-12-07T00:44:49;22.03;;;12.67;;
20669;SDS011;10494;50.868;4.180;2022-12-07T00:47:14;24.10;;;13.80;;
20669;SDS011;10494;50.868;4.180;2022-12-07T00:49:40;25.90;;;13.57;;
20669;SDS011;10494;50.868;4.180;2022-12-07T00:52:05;23.87;;;14.37;;
20669;SDS011;10494;50.868;4.180;2022-12-07T00:54:31;22.43;;;13.20;;
20669;SDS011;10494;50.868;4.180;2022-12-07T00:56:56;28.17;;;14.40;;
20669;SDS011;10494;50.868;4.180;2022-12-07T00:59:22;19.97;;;12.97;;
20669;SDS011;10494;50.868;4.180;2022-12-07T01:01:48;26.53;;;13.90;;
20669;SDS011;10494;50.868;4.180;2022-12-07T01:04:13;25.60;;;14.60;;
20669;SDS011;10494;50.868;4.180;2022-12-07T01:06:39;24.33;;;13.30;;
20669;SDS011;10494;50.868;4.180;2022-12-07T01:09:04;26.63;;;14.20;;
20669;SDS011;10494;50.868;4.180;2022-12-07T01:11:31;27.03;;;14.77;;
20669;SDS011;10494;50.868;4.180;2022-12-07T01:13:57;24.43;;;13.53;;
20669;SDS011;10494;50.868;4.180;2022-12-07T01:16:24;21.17;;;13.37;;
20669;SDS011;10494;50.868;4.180;2022-12-07T01:18:54;22.90;;;14.07;;
20669;SDS011;10494;50.868;4.180;2022-12-07T01:21:27;31.87;;;14.87;;
20669;SDS011;10494;50.868;4.180;2022-12-07T01:23:56;26.90;;;14.50;;
20669;SDS011;10494;50.868;4.180;2022-12-07T01:26:23;28.43;;;14.97;;
20669;SDS011;10494;50.868;4.180;2022-12-07T01:28:49;23.97;;;14.80;;
20669;SDS011;10494;50.868;4.180;2022-12-07T01:31:16;24.43;;;13.77;;
20669;SDS011;10494;50.868;4.180;2022-12-07T01:33:44;25.60;;;15.13;;
20669;SDS011;10494;50.868;4.180;2022-12-07T01:38:49;26.93;;;15.03;;
20669;SDS011;10494;50.868;4.180;2022-12-07T01:41:17;30.97;;;15.27;;
20669;SDS011;10494;50.868;4.180;2022-12-07T01:46:31;26.60;;;14.87;;
20669;SDS011;10494;50.868;4.180;2022-12-07T01:48:56;28.43;;;15.87;;
20669;SDS011;10494;50.868;4.180;2022-12-07T01:51:22;26.80;;;15.57;;
20669;SDS011;10494;50.868;4.180;2022-12-07T01:53:47;27.50;;;15.47;;
20669;SDS011;10494;50.868;4.180;2022-12-07T01:56:15;27.03;;;15.50;;
20669;SDS011;10494;50.868;4.180;2022-12-07T01:58:44;24.40;;;14.63;;
20669;SDS011;10494;50.868;4.180;2022-12-07T02:01:10;21.63;;;13.83;;
20669;SDS011;10494;50.868;4.180;2022-12-07T02:03:40;27.43;;;14.50;;
20669;SDS011;10494;50.868;4.180;2022-12-07T02:06:08;28.17;;;14.07;;
20669;SDS011;10494;50.868;4.180;2022-12-07T02:08:36;21.80;;;12.67;;
20669;SDS011;10494;50.868;4.180;2022-12-07T02:11:02;24.13;;;14.17;;
20669;SDS011;10494;50.868;4.180;2022-12-07T02:13:33;23.83;;;14.90;;
20669;SDS011;10494;50.868;4.180;2022-12-07T02:21:46;20.13;;;12.93;;
20669;SDS011;10494;50.868;4.180;2022-12-07T02:29:39;25.23;;;13.20;;
20669;SDS011;10494;50.868;4.180;2022-12-07T02:35:07;20.83;;;12.87;;
20669;SDS011;10494;50.868;4.180;2022-12-07T02:37:55;20.77;;;13.27;;
20669;SDS011;10494;50.868;4.180;2022-12-07T02:40:38;26.07;;;14.50;;
20669;SDS011;10494;50.868;4.180;2022-12-07T02:45:50;21.57;;;13.53;;
20669;SDS011;10494;50.868;4.180;2022-12-07T02:48:18;21.40;;;12.97;;
20669;SDS011;10494;50.868;4.180;2022-12-07T02:50:48;21.43;;;12.60;;
20669;SDS011;10494;50.868;4.180;2022-12-07T02:53:31;20.13;;;11.97;;
20669;SDS011;10494;50.868;4.180;2022-12-07T02:56:02;20.50;;;11.90;;
20669;SDS011;10494;50.868;4.180;2022-12-07T02:58:40;21.40;;;12.83;;
20669;SDS011;10494;50.868;4.180;2022-12-07T03:04:19;22.57;;;11.90;;
20669;SDS011;10494;50.868;4.180;2022-12-07T03:06:57;18.13;;;11.17;;
20669;SDS011;10494;50.868;4.180;2022-12-07T03:09:32;26.13;;;11.23;;
20669;SDS011;10494;50.868;4.180;2022-12-07T03:12:09;17.60;;;11.37;;
20669;SDS011;10494;50.868;4.180;2022-12-07T03:14:52;18.13;;;10.97;;
20669;SDS011;10494;50.868;4.180;2022-12-07T03:17:25;19.33;;;11.10;;
20669;SDS011;10494;50.868;4.180;2022-12-07T03:19:54;21.93;;;11.80;;
20669;SDS011;10494;50.868;4.180;2022-12-07T03:22:24;25.27;;;11.90;;
20669;SDS011;10494;50.868;4.180;2022-12-07T03:24:54;17.50;;;11.07;;
20669;SDS011;10494;50.868;4.180;2022-12-07T03:27:24;22.73;;;12.20;;
20669;SDS011;10494;50.868;4.180;2022-12-07T03:29:59;20.73;;;12.73;;
20669;SDS011;10494;50.868;4.180;2022-12-07T03:35:16;19.37;;;12.30;;
20669;SDS011;10494;50.868;4.180;2022-12-07T03:43:14;20.30;;;12.10;;
20669;SDS011;10494;50.868;4.180;2022-12-07T03:45:42;24.30;;;13.33;;
20669;SDS011;10494;50.868;4.180;2022-12-07T03:48:20;18.70;;;10.83;;
20669;SDS011;10494;50.868;4.180;2022-12-07T03:51:02;20.93;;;11.90;;
20669;SDS011;10494;50.868;4.180;2022-12-07T03:53:43;18.30;;;11.70;;
20669;SDS011;10494;50.868;4.180;2022-12-07T03:56:14;22.23;;;11.13;;
20669;SDS011;10494;50.868;4.180;2022-12-07T03:58:41;19.50;;;10.20;;
20669;SDS011;10494;50.868;4.180;2022-12-07T04:01:08;18.63;;;10.97;;
20669;SDS011;10494;50.868;4.180;2022-12-07T04:03:33;21.27;;;11.90;;
20669;SDS011;10494;50.868;4.180;2022-12-07T04:05:59;18.23;;;11.20;;
20669;SDS011;10494;50.868;4.180;2022-12-07T04:08:25;19.30;;;10.87;;
20669;SDS011;10494;50.868;4.180;2022-12-07T04:10:51;20.77;;;11.90;;
20669;SDS011;10494;50.868;4.180;2022-12-07T04:13:16;23.80;;;11.50;;
20669;SDS011;10494;50.868;4.180;2022-12-07T04:15:42;18.93;;;10.40;;
20669;SDS011;10494;50.868;4.180;2022-12-07T04:18:07;22.23;;;11.13;;
20669;SDS011;10494;50.868;4.180;2022-12-07T04:20:33;20.40;;;10.63;;
20669;SDS011;10494;50.868;4.180;2022-12-07T04:22:59;16.60;;;10.50;;
20669;SDS011;10494;50.868;4.180;2022-12-07T04:25:24;19.47;;;9.97;;
20669;SDS011;10494;50.868;4.180;2022-12-07T04:27:50;19.33;;;10.57;;
20669;SDS011;10494;50.868;4.180;2022-12-07T04:30:15;19.53;;;11.60;;
20669;SDS011;10494;50.868;4.180;2022-12-07T04:32:41;20.13;;;10.90;;
20669;SDS011;10494;50.868;4.180;2022-12-07T04:35:07;18.47;;;11.07;;
20669;SDS011;10494;50.868;4.180;2022-12-07T04:37:33;16.57;;;10.27;;
20669;SDS011;10494;50.868;4.180;2022-12-07T04:39:59;16.57;;;11.50;;
20669;SDS011;10494;50.868;4.180;2022-12-07T04:42:24;23.37;;;11.80;;
20669;SDS011;10494;50.868;4.180;2022-12-07T04:44:50;21.40;;;12.40;;
20669;SDS011;10494;50.868;4.180;2022-12-07T04:47:16;22.10;;;13.33;;
20669;SDS011;10494;50.868;4.180;2022-12-07T04:49:41;20.47;;;11.60;;
20669;SDS011;10494;50.868;4.180;2022-12-07T04:52:07;22.57;;;12.43;;
20669;SDS011;10494;50.868;4.180;2022-12-07T04:54:32;16.17;;;10.57;;
20669;SDS011;10494;50.868;4.180;2022-12-07T04:56:58;25.60;;;12.40;;
20669;SDS011;10494;50.868;4.180;2022-12-07T04:59:24;20.37;;;10.80;;
20669;SDS011;10494;50.868;4.180;2022-12-07T05:01:49;19.20;;;10.97;;
20669;SDS011;10494;50.868;4.180;2022-12-07T05:04:15;19.33;;;9.50;;
20669;SDS011;10494;50.868;4.180;2022-12-07T05:06:42;21.33;;;12.00;;
20669;SDS011;10494;50.868;4.180;2022-12-07T05:09:08;17.60;;;10.60;;
20669;SDS011;10494;50.868;4.180;2022-12-07T05:11:34;17.93;;;10.37;;
20669;SDS011;10494;50.868;4.180;2022-12-07T05:14:16;21.63;;;10.30;;
20669;SDS011;10494;50.868;4.180;2022-12-07T05:16:46;19.17;;;10.17;;
20669;SDS011;10494;50.868;4.180;2022-12-07T05:19:13;17.03;;;10.13;;
20669;SDS011;10494;50.868;4.180;2022-12-07T05:21:39;19.37;;;11.30;;
20669;SDS011;10494;50.868;4.180;2022-12-07T05:24:06;17.70;;;10.77;;
20669;SDS011;10494;50.868;4.180;2022-12-07T05:26:32;19.63;;;11.23;;
20669;SDS011;10494;50.868;4.180;2022-12-07T05:28:59;20.97;;;10.77;;
20669;SDS011;10494;50.868;4.180;2022-12-07T05:31:25;19.07;;;10.80;;
20669;SDS011;10494;50.868;4.180;2022-12-07T05:33:51;21.83;;;11.50;;
20669;SDS011;10494;50.868;4.180;2022-12-07T05:36:17;25.03;;;12.10;;
20669;SDS011;10494;50.868;4.180;2022-12-07T05:38:43;24.03;;;12.00;;
20669;SDS011;10494;50.868;4.180;2022-12-07T05:41:09;25.50;;;11.93;;
20669;SDS011;10494;50.868;4.180;2022-12-07T05:43:58;26.20;;;12.27;;
20669;SDS011;10494;50.868;4.180;2022-12-07T05:46:24;23.10;;;12.53;;
20669;SDS011;10494;50.868;4.180;2022-12-07T05:48:50;22.33;;;11.33;;
20669;SDS011;10494;50.868;4.180;2022-12-07T05:51:16;20.93;;;11.40;;
20669;SDS011;10494;50.868;4.180;2022-12-07T05:53:41;25.40;;;12.43;;
20669;SDS011;10494;50.868;4.180;2022-12-07T05:56:07;23.77;;;12.37;;
20669;SDS011;10494;50.868;4.180;2022-12-07T05:58:33;19.23;;;11.97;;
20669;SDS011;10494;50.868;4.180;2022-12-07T06:01:17;26.20;;;12.73;;
20669;SDS011;10494;50.868;4.180;2022-12-07T06:03:43;23.10;;;12.53;;
20669;SDS011;10494;50.868;4.180;2022-12-07T06:06:09;26.40;;;13.13;;
20669;SDS011;10494;50.868;4.180;2022-12-07T06:08:35;27.17;;;14.43;;
20669;SDS011;10494;50.868;4.180;2022-12-07T06:11:00;21.33;;;11.97;;
20669;SDS011;10494;50.868;4.180;2022-12-07T06:13:44;20.47;;;12.30;;
20669;SDS011;10494;50.868;4.180;2022-12-07T06:16:10;21.53;;;12.90;;
20669;SDS011;10494;50.868;4.180;2022-12-07T06:18:35;24.20;;;13.03;;
20669;SDS011;10494;50.868;4.180;2022-12-07T06:21:01;24.17;;;12.87;;
20669;SDS011;10494;50.868;4.180;2022-12-07T06:23:27;28.73;;;13.70;;
20669;SDS011;10494;50.868;4.180;2022-12-07T06:25:52;27.73;;;12.37;;
20669;SDS011;10494;50.868;4.180;2022-12-07T06:28:18;28.23;;;13.60;;
20669;SDS011;10494;50.868;4.180;2022-12-07T06:30:43;25.10;;;13.43;;
20669;SDS011;10494;50.868;4.180;2022-12-07T06:33:09;26.27;;;13.67;;
20669;SDS011;10494;50.868;4.180;2022-12-07T06:35:34;25.30;;;14.47;;
20669;SDS011;10494;50.868;4.180;2022-12-07T06:38:00;52.37;;;15.47;;
20669;SDS011;10494;50.868;4.180;2022-12-07T06:40:25;23.33;;;12.03;;
20669;SDS011;10494;50.868;4.180;2022-12-07T06:42:51;20.73;;;12.80;;
20669;SDS011;10494;50.868;4.180;2022-12-07T06:45:17;22.77;;;11.60;;
20669;SDS011;10494;50.868;4.180;2022-12-07T06:47:42;16.80;;;11.20;;
20669;SDS011;10494;50.868;4.180;2022-12-07T06:50:08;23.97;;;11.57;;
20669;SDS011;10494;50.868;4.180;2022-12-07T06:52:34;18.30;;;10.97;;
20669;SDS011;10494;50.868;4.180;2022-12-07T06:54:59;21.67;;;10.70;;
20669;SDS011;10494;50.868;4.180;2022-12-07T06:57:25;24.93;;;12.33;;
20669;SDS011;10494;50.868;4.180;2022-12-07T06:59:51;17.27;;;10.80;;
20669;SDS011;10494;50.868;4.180;2022-12-07T07:02:16;28.83;;;12.10;;
20669;SDS011;10494;50.868;4.180;2022-12-07T07:04:42;22.67;;;13.17;;
20669;SDS011;10494;50.868;4.180;2022-12-07T07:07:08;26.83;;;15.40;;
20669;SDS011;10494;50.868;4.180;2022-12-07T07:09:34;26.30;;;14.83;;
20669;SDS011;10494;50.868;4.180;2022-12-07T07:11:59;30.80;;;18.63;;
20669;SDS011;10494;50.868;4.180;2022-12-07T07:14:25;29.77;;;16.97;;
20669;SDS011;10494;50.868;4.180;2022-12-07T07:16:51;27.03;;;15.13;;
20669;SDS011;10494;50.868;4.180;2022-12-07T07:19:16;27.40;;;17.63;;
20669;SDS011;10494;50.868;4.180;2022-12-07T07:21:42;28.53;;;17.43;;
20669;SDS011;10494;50.868;4.180;2022-12-07T07:24:07;37.07;;;18.67;;
20669;SDS011;10494;50.868;4.180;2022-12-07T07:26:33;34.63;;;17.70;;
20669;SDS011;10494;50.868;4.180;2022-12-07T07:28:58;40.47;;;18.70;;
20669;SDS011;10494;50.868;4.180;2022-12-07T07:31:24;41.03;;;18.17;;
20669;SDS011;10494;50.868;4.180;2022-12-07T07:33:49;32.87;;;20.50;;
20669;SDS011;10494;50.868;4.180;2022-12-07T07:36:15;36.90;;;19.00;;
20669;SDS011;10494;50.868;4.180;2022-12-07T07:38:41;37.30;;;19.33;;
20669;SDS011;10494;50.868;4.180;2022-12-07T07:41:06;33.27;;;17.40;;
20669;SDS011;10494;50.868;4.180;2022-12-07T07:43:32;25.97;;;16.43;;
20669;SDS011;10494;50.868;4.180;2022-12-07T07:45:57;38.43;;;14.73;;
20669;SDS011;10494;50.868;4.180;2022-12-07T07:48:23;25.80;;;14.47;;
20669;SDS011;10494;50.868;4.180;2022-12-07T07:50:50;31.87;;;16.20;;
20669;SDS011;10494;50.868;4.180;2022-12-07T07:53:16;26.07;;;14.50;;
20669;SDS011;10494;50.868;4.180;2022-12-07T07:55:41;37.33;;;17.70;;
20669;SDS011;10494;50.868;4.180;2022-12-07T07:58:14;36.27;;;18.10;;
20669;SDS011;10494;50.868;4.180;2022-12-07T08:00:40;38.47;;;18.83;;
20669;SDS011;10494;50.868;4.180;2022-12-07T08:03:05;30.77;;;16.37;;
20669;SDS011;10494;50.868;4.180;2022-12-07T08:05:31;37.00;;;16.50;;
20669;SDS011;10494;50.868;4.180;2022-12-07T08:07:57;27.03;;;14.60;;
20669;SDS011;10494;50.868;4.180;2022-12-07T08:10:22;31.53;;;17.50;;
20669;SDS011;10494;50.868;4.180;2022-12-07T08:12:48;21.87;;;14.23;;
20669;SDS011;10494;50.868;4.180;2022-12-07T08:15:32;28.50;;;13.90;;
20669;SDS011;10494;50.868;4.180;2022-12-07T08:17:58;31.73;;;14.07;;
20669;SDS011;10494;50.868;4.180;2022-12-07T08:20:24;24.40;;;13.70;;
20669;SDS011;10494;50.868;4.180;2022-12-07T08:22:49;31.20;;;13.67;;
20669;SDS011;10494;50.868;4.180;2022-12-07T08:25:15;21.60;;;12.93;;
20669;SDS011;10494;50.868;4.180;2022-12-07T08:27:41;24.20;;;14.17;;
20669;SDS011;10494;50.868;4.180;2022-12-07T08:30:06;24.27;;;14.00;;
20669;SDS011;10494;50.868;4.180;2022-12-07T08:32:32;32.17;;;15.20;;
20669;SDS011;10494;50.868;4.180;2022-12-07T08:34:58;24.07;;;13.83;;
20669;SDS011;10494;50.868;4.180;2022-12-07T08:37:23;23.13;;;12.37;;
20669;SDS011;10494;50.868;4.180;2022-12-07T08:39:49;22.50;;;11.43;;
20669;SDS011;10494;50.868;4.180;2022-12-07T08:42:14;19.03;;;12.27;;
20669;SDS011;10494;50.868;4.180;2022-12-07T08:44:40;18.30;;;11.17;;
20669;SDS011;10494;50.868;4.180;2022-12-07T08:47:05;18.13;;;10.37;;
20669;SDS011;10494;50.868;4.180;2022-12-07T08:49:33;14.63;;;7.80;;
20669;SDS011;10494;50.868;4.180;2022-12-07T08:52:09;11.83;;;6.90;;
20669;SDS011;10494;50.868;4.180;2022-12-07T08:54:35;16.27;;;7.67;;
20669;SDS011;10494;50.868;4.180;2022-12-07T08:57:03;11.87;;;7.10;;
20669;SDS011;10494;50.868;4.180;2022-12-07T08:59:31;10.83;;;6.90;;
20669;SDS011;10494;50.868;4.180;2022-12-07T09:01:59;18.33;;;7.83;;
20669;SDS011;10494;50.868;4.180;2022-12-07T09:04:25;17.97;;;8.33;;
20669;SDS011;10494;50.868;4.180;2022-12-07T09:06:51;18.37;;;9.53;;
20669;SDS011;10494;50.868;4.180;2022-12-07T09:09:16;47.53;;;12.27;;
20669;SDS011;10494;50.868;4.180;2022-12-07T09:11:42;26.57;;;13.50;;
20669;SDS011;10494;50.868;4.180;2022-12-07T09:14:10;41.47;;;18.07;;
20669;SDS011;10494;50.868;4.180;2022-12-07T09:16:37;30.97;;;14.43;;
20669;SDS011;10494;50.868;4.180;2022-12-07T09:19:02;63.80;;;13.13;;
20669;SDS011;10494;50.868;4.180;2022-12-07T09:21:28;17.90;;;9.83;;
20669;SDS011;10494;50.868;4.180;2022-12-07T09:23:54;19.73;;;11.40;;
20669;SDS011;10494;50.868;4.180;2022-12-07T09:26:19;21.33;;;9.07;;
20669;SDS011;10494;50.868;4.180;2022-12-07T09:28:45;52.00;;;10.03;;
20669;SDS011;10494;50.868;4.180;2022-12-07T09:31:11;15.63;;;7.20;;
20669;SDS011;10494;50.868;4.180;2022-12-07T09:33:36;14.15;;;6.97;;
20669;SDS011;10494;50.868;4.180;2022-12-07T09:36:02;18.58;;;6.78;;
20669;SDS011;10494;50.868;4.180;2022-12-07T09:38:29;14.93;;;6.90;;
20669;SDS011;10494;50.868;4.180;2022-12-07T09:40:55;16.60;;;5.97;;
20669;SDS011;10494;50.868;4.180;2022-12-07T09:43:24;44.95;;;8.90;;
20669;SDS011;10494;50.868;4.180;2022-12-07T09:45:51;12.57;;;7.25;;
20669;SDS011;10494;50.868;4.180;2022-12-07T09:48:40;16.03;;;6.50;;
20669;SDS011;10494;50.868;4.180;2022-12-07T09:51:19;20.13;;;7.65;;
20669;SDS011;10494;50.868;4.180;2022-12-07T09:53:49;13.68;;;6.00;;
20669;SDS011;10494;50.868;4.180;2022-12-07T09:56:16;18.38;;;6.90;;
20669;SDS011;10494;50.868;4.180;2022-12-07T09:58:43;14.47;;;7.63;;
20669;SDS011;10494;50.868;4.180;2022-12-07T10:01:13;16.77;;;7.57;;
20669;SDS011;10494;50.868;4.180;2022-12-07T10:04:24;11.83;;;7.00;;
20669;SDS011;10494;50.868;4.180;2022-12-07T10:06:50;11.97;;;6.43;;
20669;SDS011;10494;50.868;4.180;2022-12-07T10:09:17;11.27;;;5.60;;
20669;SDS011;10494;50.868;4.180;2022-12-07T10:14:57;14.73;;;6.57;;
20669;SDS011;10494;50.868;4.180;2022-12-07T10:17:37;13.43;;;6.33;;
20669;SDS011;10494;50.868;4.180;2022-12-07T10:20:13;17.00;;;6.03;;
20669;SDS011;10494;50.868;4.180;2022-12-07T10:22:53;12.90;;;6.67;;
20669;SDS011;10494;50.868;4.180;2022-12-07T10:25:31;15.27;;;6.23;;
20669;SDS011;10494;50.868;4.180;2022-12-07T10:27:59;16.43;;;7.33;;
20669;SDS011;10494;50.868;4.180;2022-12-07T10:30:27;15.17;;;7.10;;
20669;SDS011;10494;50.868;4.180;2022-12-07T10:32:53;14.30;;;7.27;;
20669;SDS011;10494;50.868;4.180;2022-12-07T10:35:38;13.77;;;7.17;;
20669;SDS011;10494;50.868;4.180;2022-12-07T10:38:08;15.37;;;7.70;;
20669;SDS011;10494;50.868;4.180;2022-12-07T10:40:41;14.45;;;7.90;;
20669;SDS011;10494;50.868;4.180;2022-12-07T10:51:05;16.30;;;7.73;;
20669;SDS011;10494;50.868;4.180;2022-12-07T10:59:16;11.37;;;5.57;;
20669;SDS011;10494;50.868;4.180;2022-12-07T11:04:54;12.90;;;6.73;;
20669;SDS011;10494;50.868;4.180;2022-12-07T11:18:27;11.03;;;4.30;;
20669;SDS011;10494;50.868;4.180;2022-12-07T11:21:09;11.43;;;4.60;;
20669;SDS011;10494;50.868;4.180;2022-12-07T11:36:48;10.97;;;3.40;;
20669;SDS011;10494;50.868;4.180;2022-12-07T11:41:50;17.27;;;8.83;;
20669;SDS011;10494;50.868;4.180;2022-12-07T11:44:40;15.67;;;8.13;;
20669;SDS011;10494;50.868;4.180;2022-12-07T11:47:18;12.07;;;5.30;;
20669;SDS011;10494;50.868;4.180;2022-12-07T11:50:21;11.47;;;4.23;;
20669;SDS011;10494;50.868;4.180;2022-12-07T11:53:10;14.20;;;6.63;;
20669;SDS011;10494;50.868;4.180;2022-12-07T11:55:44;18.90;;;7.47;;
20669;SDS011;10494;50.868;4.180;2022-12-07T12:03:44;12.43;;;3.07;;
20669;SDS011;10494;50.868;4.180;2022-12-07T12:06:29;14.50;;;6.90;;
20669;SDS011;10494;50.868;4.180;2022-12-07T12:08:56;8.50;;;3.00;;
20669;SDS011;10494;50.868;4.180;2022-12-07T12:23:05;6.63;;;4.03;;
20669;SDS011;10494;50.868;4.180;2022-12-07T12:25:45;10.00;;;3.00;;
20669;SDS011;10494;50.868;4.180;2022-12-07T12:28:22;10.73;;;3.43;;
20669;SDS011;10494;50.868;4.180;2022-12-07T12:33:56;12.27;;;3.50;;
20669;SDS011;10494;50.868;4.180;2022-12-07T12:39:19;9.17;;;3.13;;
20669;SDS011;10494;50.868;4.180;2022-12-07T12:46:53;7.03;;;3.70;;
20669;SDS011;10494;50.868;4.180;2022-12-07T12:54:38;7.77;;;3.37;;
20669;SDS011;10494;50.868;4.180;2022-12-07T12:57:12;11.03;;;3.30;;
20669;SDS011;10494;50.868;4.180;2022-12-07T13:04:58;6.63;;;2.90;;
20669;SDS011;10494;50.868;4.180;2022-12-07T13:15:40;12.83;;;2.93;;
20669;SDS011;10494;50.868;4.180;2022-12-07T13:26:09;7.30;;;2.43;;
20669;SDS011;10494;50.868;4.180;2022-12-07T13:29:06;6.63;;;2.50;;
20669;SDS011;10494;50.868;4.180;2022-12-07T13:31:40;11.40;;;2.87;;
20669;SDS011;10494;50.868;4.180;2022-12-07T13:34:30;4.67;;;1.87;;
20669;SDS011;10494;50.868;4.180;2022-12-07T13:36:59;10.70;;;1.70;;
20669;SDS011;10494;50.868;4.180;2022-12-07T13:39:47;5.47;;;2.10;;
20669;SDS011;10494;50.868;4.180;2022-12-07T13:42:24;9.73;;;3.67;;
20669;SDS011;10494;50.868;4.180;2022-12-07T13:44:58;6.03;;;2.93;;
20669;SDS011;10494;50.868;4.180;2022-12-07T13:50:00;9.13;;;3.67;;
20669;SDS011;10494;50.868;4.180;2022-12-07T13:52:27;12.60;;;3.27;;
20669;SDS011;10494;50.868;4.180;2022-12-07T13:57:27;14.17;;;4.53;;
20669;SDS011;10494;50.868;4.180;2022-12-07T13:59:55;9.90;;;2.73;;
20669;SDS011;10494;50.868;4.180;2022-12-07T14:05:14;12.00;;;5.28;;
20669;SDS011;10494;50.868;4.180;2022-12-07T14:07:49;10.90;;;3.35;;
20669;SDS011;10494;50.868;4.180;2022-12-07T14:10:38;8.90;;;2.80;;
20669;SDS011;10494;50.868;4.180;2022-12-07T14:15:56;9.40;;;4.65;;
20669;SDS011;10494;50.868;4.180;2022-12-07T14:21:21;4.87;;;1.63;;
20669;SDS011;10494;50.868;4.180;2022-12-07T14:24:09;3.70;;;1.50;;
20669;SDS011;10494;50.868;4.180;2022-12-07T14:26:37;3.87;;;1.40;;
20669;SDS011;10494;50.868;4.180;2022-12-07T14:31:56;2.93;;;1.27;;
20669;SDS011;10494;50.868;4.180;2022-12-07T14:34:23;5.47;;;1.33;;
20669;SDS011;10494;50.868;4.180;2022-12-07T14:36:50;4.53;;;1.63;;
20669;SDS011;10494;50.868;4.180;2022-12-07T14:39:16;11.37;;;4.60;;
20669;SDS011;10494;50.868;4.180;2022-12-07T14:41:41;21.80;;;5.90;;
20669;SDS011;10494;50.868;4.180;2022-12-07T14:44:16;6.70;;;2.87;;
20669;SDS011;10494;50.868;4.180;2022-12-07T14:46:47;9.20;;;4.83;;
20669;SDS011;10494;50.868;4.180;2022-12-07T14:49:14;7.43;;;4.03;;
20669;SDS011;10494;50.868;4.180;2022-12-07T14:51:40;4.80;;;1.97;;
20669;SDS011;10494;50.868;4.180;2022-12-07T14:54:09;5.57;;;2.03;;
20669;SDS011;10494;50.868;4.180;2022-12-07T14:56:44;6.57;;;2.17;;
20669;SDS011;10494;50.868;4.180;2022-12-07T14:59:10;5.50;;;2.60;;
20669;SDS011;10494;50.868;4.180;2022-12-07T15:01:37;7.93;;;3.70;;
20669;SDS011;10494;50.868;4.180;2022-12-07T15:04:03;8.07;;;4.60;;
20669;SDS011;10494;50.868;4.180;2022-12-07T15:06:28;7.60;;;3.30;;
20669;SDS011;10494;50.868;4.180;2022-12-07T15:08:54;12.80;;;3.70;;
20669;SDS011;10494;50.868;4.180;2022-12-07T15:11:20;4.23;;;2.63;;
20669;SDS011;10494;50.868;4.180;2022-12-07T15:13:45;7.47;;;2.30;;
20669;SDS011;10494;50.868;4.180;2022-12-07T15:16:30;5.73;;;2.57;;
20669;SDS011;10494;50.868;4.180;2022-12-07T15:18:56;6.53;;;3.83;;
20669;SDS011;10494;50.868;4.180;2022-12-07T15:21:21;18.67;;;5.97;;
20669;SDS011;10494;50.868;4.180;2022-12-07T15:23:47;18.00;;;5.87;;
20669;SDS011;10494;50.868;4.180;2022-12-07T15:26:13;16.33;;;7.10;;
20669;SDS011;10494;50.868;4.180;2022-12-07T15:28:39;11.93;;;5.70;;
20669;SDS011;10494;50.868;4.180;2022-12-07T15:31:14;10.80;;;6.33;;
20669;SDS011;10494;50.868;4.180;2022-12-07T15:33:41;11.53;;;5.53;;
20669;SDS011;10494;50.868;4.180;2022-12-07T15:36:08;9.13;;;3.87;;
20669;SDS011;10494;50.868;4.180;2022-12-07T15:38:45;7.33;;;4.03;;
20669;SDS011;10494;50.868;4.180;2022-12-07T15:41:11;10.63;;;4.10;;
20669;SDS011;10494;50.868;4.180;2022-12-07T15:43:36;14.50;;;5.63;;
20669;SDS011;10494;50.868;4.180;2022-12-07T15:46:20;11.13;;;5.30;;
20669;SDS011;10494;50.868;4.180;2022-12-07T15:48:46;13.23;;;4.80;;
20669;SDS011;10494;50.868;4.180;2022-12-07T15:51:12;12.20;;;5.57;;
20669;SDS011;10494;50.868;4.180;2022-12-07T15:53:37;10.50;;;4.30;;
20669;SDS011;10494;50.868;4.180;2022-12-07T15:56:06;18.77;;;5.50;;
20669;SDS011;10494;50.868;4.180;2022-12-07T15:58:33;11.47;;;4.90;;
20669;SDS011;10494;50.868;4.180;2022-12-07T16:00:59;11.00;;;5.03;;
20669;SDS011;10494;50.868;4.180;2022-12-07T16:03:26;8.83;;;4.33;;
20669;SDS011;10494;50.868;4.180;2022-12-07T16:05:52;11.23;;;4.70;;
20669;SDS011;10494;50.868;4.180;2022-12-07T16:08:18;12.00;;;4.57;;
20669;SDS011;10494;50.868;4.180;2022-12-07T16:10:44;12.87;;;4.40;;
20669;SDS011;10494;50.868;4.180;2022-12-07T16:13:10;8.37;;;4.90;;
20669;SDS011;10494;50.868;4.180;2022-12-07T16:15:39;9.83;;;5.73;;
20669;SDS011;10494;50.868;4.180;2022-12-07T16:18:05;13.43;;;6.70;;
20669;SDS011;10494;50.868;4.180;2022-12-07T16:20:31;11.07;;;6.23;;
20669;SDS011;10494;50.868;4.180;2022-12-07T16:22:57;10.67;;;6.23;;
20669;SDS011;10494;50.868;4.180;2022-12-07T16:25:23;16.30;;;6.00;;
20669;SDS011;10494;50.868;4.180;2022-12-07T16:27:48;8.07;;;4.93;;
20669;SDS011;10494;50.868;4.180;2022-12-07T16:30:15;9.97;;;5.77;;
20669;SDS011;10494;50.868;4.180;2022-12-07T16:32:41;11.20;;;5.43;;
20669;SDS011;10494;50.868;4.180;2022-12-07T16:35:07;12.27;;;5.27;;
20669;SDS011;10494;50.868;4.180;2022-12-07T16:37:33;8.43;;;4.80;;
20669;SDS011;10494;50.868;4.180;2022-12-07T16:39:59;13.43;;;5.07;;
20669;SDS011;10494;50.868;4.180;2022-12-07T16:42:25;13.73;;;5.47;;
20669;SDS011;10494;50.868;4.180;2022-12-07T16:44:51;7.47;;;5.13;;
20669;SDS011;10494;50.868;4.180;2022-12-07T16:47:17;12.73;;;5.80;;
20669;SDS011;10494;50.868;4.180;2022-12-07T16:49:42;8.67;;;5.43;;
20669;SDS011;10494;50.868;4.180;2022-12-07T16:52:08;14.07;;;6.73;;
20669;SDS011;10494;50.868;4.180;2022-12-07T16:54:34;16.60;;;8.07;;
20669;SDS011;10494;50.868;4.180;2022-12-07T16:57:01;20.23;;;8.57;;
20669;SDS011;10494;50.868;4.180;2022-12-07T16:59:26;15.93;;;8.87;;
20669;SDS011;10494;50.868;4.180;2022-12-07T17:01:52;14.43;;;8.13;;
20669;SDS011;10494;50.868;4.180;2022-12-07T17:04:17;14.30;;;7.63;;
20669;SDS011;10494;50.868;4.180;2022-12-07T17:06:43;16.17;;;8.80;;
20669;SDS011;10494;50.868;4.180;2022-12-07T17:09:08;17.93;;;9.40;;
20669;SDS011;10494;50.868;4.180;2022-12-07T17:11:36;23.47;;;13.60;;